Terminal Aerodrome Forecast
Issued by NWS Flagstaff, AZ

Home | Current Version | Previous Version | Text Only | Print | Product List | Glossary On
Versions: 1 2 3 4 5 6 7 8 9 10 11 12 13 14 15 16 17 18 19
000
FTUS45 KFGZ 271400 AAB
TAFFLG
TAF AMD
KFLG 271448Z 2715/2812 VRB04KT 6SM BR SCT018 SCT025 OVC035
      TEMPO 2715/2716 6SM -SHRA BKN018 OVC025
     FM271600 VRB06KT P6SM SCT016 OVC025
     FM271800 21010G15KT P6SM FEW020 BKN040 OVC060
     FM280200 VRB03KT P6SM SCT040 SCT250=

USA.gov is the U.S. government's official web portal to all federal, state and local government web resources and services.